sensor_id;sensor_type;location;lat;lon;timestamp;temperature;humidity
47600;DHT22;33323;52.124;6.018;2023-05-07T00:02:26;15.10;99.90
47600;DHT22;33323;52.124;6.018;2023-05-07T00:04:53;15.20;99.90
47600;DHT22;33323;52.124;6.018;2023-05-07T00:07:20;15.20;99.90
47600;DHT22;33323;52.124;6.018;2023-05-07T00:09:47;15.20;99.90
47600;DHT22;33323;52.124;6.018;2023-05-07T00:12:14;15.10;99.90
47600;DHT22;33323;52.124;6.018;2023-05-07T00:14:41;15.00;99.90
47600;DHT22;33323;52.124;6.018;2023-05-07T00:17:08;14.90;99.90
47600;DHT22;33323;52.124;6.018;2023-05-07T00:19:36;14.80;99.90
47600;DHT22;33323;52.124;6.018;2023-05-07T00:22:03;14.80;99.90
47600;DHT22;33323;52.124;6.018;2023-05-07T00:24:30;14.80;99.90
47600;DHT22;33323;52.124;6.018;2023-05-07T00:26:57;14.90;99.90
47600;DHT22;33323;52.124;6.018;2023-05-07T00:29:24;14.90;99.90
47600;DHT22;33323;52.124;6.018;2023-05-07T00:31:51;14.90;99.90
47600;DHT22;33323;52.124;6.018;2023-05-07T00:34:20;14.90;99.90
47600;DHT22;33323;52.124;6.018;2023-05-07T00:36:47;14.90;99.90
47600;DHT22;33323;52.124;6.018;2023-05-07T00:39:14;14.90;99.90
47600;DHT22;33323;52.124;6.018;2023-05-07T00:41:41;14.90;99.90
47600;DHT22;33323;52.124;6.018;2023-05-07T00:44:09;14.90;99.90
47600;DHT22;33323;52.124;6.018;2023-05-07T00:46:36;14.90;99.90
47600;DHT22;33323;52.124;6.018;2023-05-07T00:49:03;14.90;99.90
47600;DHT22;33323;52.124;6.018;2023-05-07T00:51:33;14.90;99.90
47600;DHT22;33323;52.124;6.018;2023-05-07T00:54:02;14.90;99.90
47600;DHT22;33323;52.124;6.018;2023-05-07T00:56:29;14.90;99.90
47600;DHT22;33323;52.124;6.018;2023-05-07T00:58:56;14.90;99.90
47600;DHT22;33323;52.124;6.018;2023-05-07T01:01:23;14.90;99.90
47600;DHT22;33323;52.124;6.018;2023-05-07T01:03:51;15.00;99.90
47600;DHT22;33323;52.124;6.018;2023-05-07T01:06:19;15.00;99.90
47600;DHT22;33323;52.124;6.018;2023-05-07T01:08:48;14.90;99.90
47600;DHT22;33323;52.124;6.018;2023-05-07T01:11:17;14.90;99.90
47600;DHT22;33323;52.124;6.018;2023-05-07T01:13:47;14.90;99.90
47600;DHT22;33323;52.124;6.018;2023-05-07T01:16:15;14.90;99.90
47600;DHT22;33323;52.124;6.018;2023-05-07T01:18:49;14.80;99.90
47600;DHT22;33323;52.124;6.018;2023-05-07T01:21:17;14.90;99.90
47600;DHT22;33323;52.124;6.018;2023-05-07T01:23:45;14.80;99.90
47600;DHT22;33323;52.124;6.018;2023-05-07T01:26:13;14.70;99.90
47600;DHT22;33323;52.124;6.018;2023-05-07T01:28:44;14.70;99.90
47600;DHT22;33323;52.124;6.018;2023-05-07T01:31:12;14.60;99.90
47600;DHT22;33323;52.124;6.018;2023-05-07T01:33:41;14.60;99.90
47600;DHT22;33323;52.124;6.018;2023-05-07T01:36:09;14.50;99.90
47600;DHT22;33323;52.124;6.018;2023-05-07T01:38:37;14.50;99.90
47600;DHT22;33323;52.124;6.018;2023-05-07T01:41:06;14.50;99.90
47600;DHT22;33323;52.124;6.018;2023-05-07T01:43:33;14.40;99.90
47600;DHT22;33323;52.124;6.018;2023-05-07T01:46:01;14.30;99.90
47600;DHT22;33323;52.124;6.018;2023-05-07T01:48:29;14.30;99.90
47600;DHT22;33323;52.124;6.018;2023-05-07T01:50:56;14.30;99.90
47600;DHT22;33323;52.124;6.018;2023-05-07T01:53:23;14.30;99.90
47600;DHT22;33323;52.124;6.018;2023-05-07T01:55:50;14.30;99.90
47600;DHT22;33323;52.124;6.018;2023-05-07T01:58:19;14.30;99.90
47600;DHT22;33323;52.124;6.018;2023-05-07T02:00:47;14.40;99.90
47600;DHT22;33323;52.124;6.018;2023-05-07T02:03:14;14.40;99.90
47600;DHT22;33323;52.124;6.018;2023-05-07T02:05:50;14.40;99.90
47600;DHT22;33323;52.124;6.018;2023-05-07T02:08:33;14.50;99.90
47600;DHT22;33323;52.124;6.018;2023-05-07T02:11:00;14.50;99.90
47600;DHT22;33323;52.124;6.018;2023-05-07T02:13:30;14.40;99.90
47600;DHT22;33323;52.124;6.018;2023-05-07T02:15:58;14.40;99.90
47600;DHT22;33323;52.124;6.018;2023-05-07T02:18:27;14.40;99.90
47600;DHT22;33323;52.124;6.018;2023-05-07T02:20:54;14.30;99.90
47600;DHT22;33323;52.124;6.018;2023-05-07T02:23:21;14.20;99.90
47600;DHT22;33323;52.124;6.018;2023-05-07T02:25:48;14.20;99.90
47600;DHT22;33323;52.124;6.018;2023-05-07T02:28:15;14.00;99.90
47600;DHT22;33323;52.124;6.018;2023-05-07T02:30:50;14.00;99.90
47600;DHT22;33323;52.124;6.018;2023-05-07T02:33:18;13.90;99.90
47600;DHT22;33323;52.124;6.018;2023-05-07T02:35:46;13.80;99.90
47600;DHT22;33323;52.124;6.018;2023-05-07T02:38:15;13.70;99.90
47600;DHT22;33323;52.124;6.018;2023-05-07T02:40:42;13.70;99.90
47600;DHT22;33323;52.124;6.018;2023-05-07T02:43:09;13.70;99.90
47600;DHT22;33323;52.124;6.018;2023-05-07T02:45:38;13.70;99.90
47600;DHT22;33323;52.124;6.018;2023-05-07T02:48:06;13.80;99.90
47600;DHT22;33323;52.124;6.018;2023-05-07T02:50:34;13.90;99.90
47600;DHT22;33323;52.124;6.018;2023-05-07T02:53:01;13.90;99.90
47600;DHT22;33323;52.124;6.018;2023-05-07T02:55:28;13.90;99.90
47600;DHT22;33323;52.124;6.018;2023-05-07T02:57:56;13.80;99.90
47600;DHT22;33323;52.124;6.018;2023-05-07T03:00:24;13.80;99.90
47600;DHT22;33323;52.124;6.018;2023-05-07T03:03:20;13.70;99.90
47600;DHT22;33323;52.124;6.018;2023-05-07T03:05:47;13.70;99.90
47600;DHT22;33323;52.124;6.018;2023-05-07T03:08:15;13.80;99.90
47600;DHT22;33323;52.124;6.018;2023-05-07T03:10:41;13.70;99.90
47600;DHT22;33323;52.124;6.018;2023-05-07T03:13:08;13.80;99.90
47600;DHT22;33323;52.124;6.018;2023-05-07T03:15:36;13.80;99.90
47600;DHT22;33323;52.124;6.018;2023-05-07T03:18:03;13.90;99.90
47600;DHT22;33323;52.124;6.018;2023-05-07T03:20:30;13.80;99.90
47600;DHT22;33323;52.124;6.018;2023-05-07T03:22:58;13.80;99.90
47600;DHT22;33323;52.124;6.018;2023-05-07T03:25:25;13.90;99.90
47600;DHT22;33323;52.124;6.018;2023-05-07T03:27:52;13.90;99.90
47600;DHT22;33323;52.124;6.018;2023-05-07T03:30:23;13.90;99.90
47600;DHT22;33323;52.124;6.018;2023-05-07T03:32:50;13.90;99.90
47600;DHT22;33323;52.124;6.018;2023-05-07T03:35:18;13.90;99.90
47600;DHT22;33323;52.124;6.018;2023-05-07T03:37:45;13.90;99.90
47600;DHT22;33323;52.124;6.018;2023-05-07T03:40:13;13.80;99.90
47600;DHT22;33323;52.124;6.018;2023-05-07T03:42:45;13.70;99.90
47600;DHT22;33323;52.124;6.018;2023-05-07T03:45:13;13.70;99.90
47600;DHT22;33323;52.124;6.018;2023-05-07T03:47:45;13.80;99.90
47600;DHT22;33323;52.124;6.018;2023-05-07T03:50:16;13.80;99.90
47600;DHT22;33323;52.124;6.018;2023-05-07T03:52:43;13.80;99.90
47600;DHT22;33323;52.124;6.018;2023-05-07T03:55:12;13.90;99.90
47600;DHT22;33323;52.124;6.018;2023-05-07T03:57:45;13.90;99.90
47600;DHT22;33323;52.124;6.018;2023-05-07T04:00:13;13.90;99.90
47600;DHT22;33323;52.124;6.018;2023-05-07T04:02:49;13.90;99.90
47600;DHT22;33323;52.124;6.018;2023-05-07T04:05:25;13.90;99.90
47600;DHT22;33323;52.124;6.018;2023-05-07T04:08:01;13.90;99.90
47600;DHT22;33323;52.124;6.018;2023-05-07T04:10:38;13.90;99.90
47600;DHT22;33323;52.124;6.018;2023-05-07T04:13:08;13.80;99.90
47600;DHT22;33323;52.124;6.018;2023-05-07T04:15:36;13.80;99.90
47600;DHT22;33323;52.124;6.018;2023-05-07T04:18:06;13.80;99.90
47600;DHT22;33323;52.124;6.018;2023-05-07T04:20:35;13.80;99.90
47600;DHT22;33323;52.124;6.018;2023-05-07T04:23:09;13.80;99.90
47600;DHT22;33323;52.124;6.018;2023-05-07T04:25:36;13.80;99.90
47600;DHT22;33323;52.124;6.018;2023-05-07T04:28:28;13.80;99.90
47600;DHT22;33323;52.124;6.018;2023-05-07T04:30:57;13.80;99.90
47600;DHT22;33323;52.124;6.018;2023-05-07T04:33:25;13.80;99.90
47600;DHT22;33323;52.124;6.018;2023-05-07T04:35:54;13.90;99.90
47600;DHT22;33323;52.124;6.018;2023-05-07T04:38:21;13.90;99.90
47600;DHT22;33323;52.124;6.018;2023-05-07T04:40:51;13.90;99.90
47600;DHT22;33323;52.124;6.018;2023-05-07T04:43:22;13.90;99.90
47600;DHT22;33323;52.124;6.018;2023-05-07T04:45:51;14.00;99.90
47600;DHT22;33323;52.124;6.018;2023-05-07T04:48:20;14.00;99.90
47600;DHT22;33323;52.124;6.018;2023-05-07T04:50:52;13.90;99.90
47600;DHT22;33323;52.124;6.018;2023-05-07T04:53:20;13.90;99.90
47600;DHT22;33323;52.124;6.018;2023-05-07T04:55:55;14.00;99.90
47600;DHT22;33323;52.124;6.018;2023-05-07T04:58:25;14.00;99.90
47600;DHT22;33323;52.124;6.018;2023-05-07T05:00:52;14.00;99.90
47600;DHT22;33323;52.124;6.018;2023-05-07T05:03:19;14.00;99.90
47600;DHT22;33323;52.124;6.018;2023-05-07T05:05:46;14.00;99.90
47600;DHT22;33323;52.124;6.018;2023-05-07T05:08:15;14.00;99.90
47600;DHT22;33323;52.124;6.018;2023-05-07T05:10:43;14.00;99.90
47600;DHT22;33323;52.124;6.018;2023-05-07T05:13:10;14.00;99.90
47600;DHT22;33323;52.124;6.018;2023-05-07T05:15:40;14.00;99.90
47600;DHT22;33323;52.124;6.018;2023-05-07T05:18:07;14.00;99.90
47600;DHT22;33323;52.124;6.018;2023-05-07T05:20:34;14.00;99.90
47600;DHT22;33323;52.124;6.018;2023-05-07T05:23:02;14.00;99.90
47600;DHT22;33323;52.124;6.018;2023-05-07T05:25:30;14.00;99.90
47600;DHT22;33323;52.124;6.018;2023-05-07T05:27:58;14.00;99.90
47600;DHT22;33323;52.124;6.018;2023-05-07T05:30:25;14.00;99.90
47600;DHT22;33323;52.124;6.018;2023-05-07T05:32:52;14.00;99.90
47600;DHT22;33323;52.124;6.018;2023-05-07T05:35:19;14.00;99.90
47600;DHT22;33323;52.124;6.018;2023-05-07T05:37:46;14.00;99.90
47600;DHT22;33323;52.124;6.018;2023-05-07T05:40:16;14.10;99.90
47600;DHT22;33323;52.124;6.018;2023-05-07T05:42:43;14.00;99.90
47600;DHT22;33323;52.124;6.018;2023-05-07T05:45:11;14.00;99.90
47600;DHT22;33323;52.124;6.018;2023-05-07T05:47:39;14.00;99.90
47600;DHT22;33323;52.124;6.018;2023-05-07T05:50:07;14.00;99.90
47600;DHT22;33323;52.124;6.018;2023-05-07T05:52:34;14.00;99.90
47600;DHT22;33323;52.124;6.018;2023-05-07T05:55:02;14.00;99.90
47600;DHT22;33323;52.124;6.018;2023-05-07T05:57:30;14.10;99.90
47600;DHT22;33323;52.124;6.018;2023-05-07T05:59:58;14.10;99.90
47600;DHT22;33323;52.124;6.018;2023-05-07T06:02:25;14.10;99.90
47600;DHT22;33323;52.124;6.018;2023-05-07T06:04:52;14.10;99.90
47600;DHT22;33323;52.124;6.018;2023-05-07T06:07:21;14.10;99.90
47600;DHT22;33323;52.124;6.018;2023-05-07T06:09:49;14.10;99.90
47600;DHT22;33323;52.124;6.018;2023-05-07T06:12:16;14.20;99.90
47600;DHT22;33323;52.124;6.018;2023-05-07T06:14:43;14.20;99.90
47600;DHT22;33323;52.124;6.018;2023-05-07T06:17:11;14.20;99.90
47600;DHT22;33323;52.124;6.018;2023-05-07T06:19:38;14.10;99.90
47600;DHT22;33323;52.124;6.018;2023-05-07T06:22:06;14.10;99.90
47600;DHT22;33323;52.124;6.018;2023-05-07T06:24:34;14.10;99.90
47600;DHT22;33323;52.124;6.018;2023-05-07T06:27:04;14.10;99.90
47600;DHT22;33323;52.124;6.018;2023-05-07T06:29:33;14.10;99.90
47600;DHT22;33323;52.124;6.018;2023-05-07T06:32:13;14.10;99.90
47600;DHT22;33323;52.124;6.018;2023-05-07T06:34:42;14.10;99.90
47600;DHT22;33323;52.124;6.018;2023-05-07T06:37:10;14.10;99.90
47600;DHT22;33323;52.124;6.018;2023-05-07T06:39:57;14.10;99.90
47600;DHT22;33323;52.124;6.018;2023-05-07T06:42:26;14.20;99.90
47600;DHT22;33323;52.124;6.018;2023-05-07T06:44:57;14.10;99.90
47600;DHT22;33323;52.124;6.018;2023-05-07T06:47:26;14.20;99.90
47600;DHT22;33323;52.124;6.018;2023-05-07T06:49:54;14.30;99.90
47600;DHT22;33323;52.124;6.018;2023-05-07T06:52:25;14.20;99.90
47600;DHT22;33323;52.124;6.018;2023-05-07T06:54:53;14.20;99.90
47600;DHT22;33323;52.124;6.018;2023-05-07T06:57:24;14.20;99.90
47600;DHT22;33323;52.124;6.018;2023-05-07T06:59:51;14.20;99.90
47600;DHT22;33323;52.124;6.018;2023-05-07T07:02:20;14.10;99.90
47600;DHT22;33323;52.124;6.018;2023-05-07T07:04:49;14.20;99.90
47600;DHT22;33323;52.124;6.018;2023-05-07T07:07:16;14.20;99.90
47600;DHT22;33323;52.124;6.018;2023-05-07T07:09:47;14.10;99.90
47600;DHT22;33323;52.124;6.018;2023-05-07T07:12:17;14.10;99.90
47600;DHT22;33323;52.124;6.018;2023-05-07T07:14:44;14.10;99.90
47600;DHT22;33323;52.124;6.018;2023-05-07T07:17:13;14.10;99.90
47600;DHT22;33323;52.124;6.018;2023-05-07T07:19:40;14.20;99.90
47600;DHT22;33323;52.124;6.018;2023-05-07T07:22:08;14.20;99.90
47600;DHT22;33323;52.124;6.018;2023-05-07T07:24:37;14.20;99.90
47600;DHT22;33323;52.124;6.018;2023-05-07T07:27:07;14.20;99.90
47600;DHT22;33323;52.124;6.018;2023-05-07T07:29:34;14.30;99.90
47600;DHT22;33323;52.124;6.018;2023-05-07T07:32:02;14.30;99.90
47600;DHT22;33323;52.124;6.018;2023-05-07T07:34:30;14.30;99.90
47600;DHT22;33323;52.124;6.018;2023-05-07T07:36:57;14.30;99.90
47600;DHT22;33323;52.124;6.018;2023-05-07T07:39:24;14.20;99.90
47600;DHT22;33323;52.124;6.018;2023-05-07T07:41:54;14.30;99.90
47600;DHT22;33323;52.124;6.018;2023-05-07T07:44:24;14.40;99.90
47600;DHT22;33323;52.124;6.018;2023-05-07T07:46:57;14.50;99.90
47600;DHT22;33323;52.124;6.018;2023-05-07T07:49:26;14.50;99.90
47600;DHT22;33323;52.124;6.018;2023-05-07T07:51:55;14.50;99.90
47600;DHT22;33323;52.124;6.018;2023-05-07T07:54:26;14.50;99.90
47600;DHT22;33323;52.124;6.018;2023-05-07T07:56:54;14.60;99.90
47600;DHT22;33323;52.124;6.018;2023-05-07T07:59:21;14.70;99.90
47600;DHT22;33323;52.124;6.018;2023-05-07T08:01:49;14.80;99.90
47600;DHT22;33323;52.124;6.018;2023-05-07T08:04:22;14.80;99.90
47600;DHT22;33323;52.124;6.018;2023-05-07T08:06:50;14.90;99.90
47600;DHT22;33323;52.124;6.018;2023-05-07T08:09:17;14.90;99.90
47600;DHT22;33323;52.124;6.018;2023-05-07T08:11:46;15.00;99.90
47600;DHT22;33323;52.124;6.018;2023-05-07T08:14:13;15.10;99.90
47600;DHT22;33323;52.124;6.018;2023-05-07T08:16:45;15.20;99.90
47600;DHT22;33323;52.124;6.018;2023-05-07T08:19:15;15.40;99.90
47600;DHT22;33323;52.124;6.018;2023-05-07T08:21:44;15.50;99.90
47600;DHT22;33323;52.124;6.018;2023-05-07T08:24:11;15.80;99.90
47600;DHT22;33323;52.124;6.018;2023-05-07T08:26:39;16.10;99.90
47600;DHT22;33323;52.124;6.018;2023-05-07T08:29:08;16.20;99.90
47600;DHT22;33323;52.124;6.018;2023-05-07T08:31:35;16.20;99.90
47600;DHT22;33323;52.124;6.018;2023-05-07T08:34:04;16.30;99.90
47600;DHT22;33323;52.124;6.018;2023-05-07T08:36:38;16.10;99.90
47600;DHT22;33323;52.124;6.018;2023-05-07T08:39:06;16.20;99.90
47600;DHT22;33323;52.124;6.018;2023-05-07T08:41:34;16.10;99.90
47600;DHT22;33323;52.124;6.018;2023-05-07T08:44:03;16.20;99.90
47600;DHT22;33323;52.124;6.018;2023-05-07T08:46:34;16.20;99.90
47600;DHT22;33323;52.124;6.018;2023-05-07T08:49:01;16.10;99.90
47600;DHT22;33323;52.124;6.018;2023-05-07T08:51:29;16.00;99.90
47600;DHT22;33323;52.124;6.018;2023-05-07T08:53:58;16.00;99.90
47600;DHT22;33323;52.124;6.018;2023-05-07T08:56:30;16.10;99.90
47600;DHT22;33323;52.124;6.018;2023-05-07T08:58:57;16.20;99.90
47600;DHT22;33323;52.124;6.018;2023-05-07T09:01:27;16.40;99.90
47600;DHT22;33323;52.124;6.018;2023-05-07T09:03:55;16.40;99.90
47600;DHT22;33323;52.124;6.018;2023-05-07T09:06:24;16.40;99.90
47600;DHT22;33323;52.124;6.018;2023-05-07T09:08:53;16.50;99.90
47600;DHT22;33323;52.124;6.018;2023-05-07T09:11:24;16.60;99.90
47600;DHT22;33323;52.124;6.018;2023-05-07T09:13:54;16.70;99.90
47600;DHT22;33323;52.124;6.018;2023-05-07T09:16:32;16.80;99.90
47600;DHT22;33323;52.124;6.018;2023-05-07T09:19:00;16.90;99.90
47600;DHT22;33323;52.124;6.018;2023-05-07T09:21:28;17.10;99.90
47600;DHT22;33323;52.124;6.018;2023-05-07T09:23:58;17.10;99.90
47600;DHT22;33323;52.124;6.018;2023-05-07T09:26:33;17.20;99.90
47600;DHT22;33323;52.124;6.018;2023-05-07T09:29:02;17.10;99.90
47600;DHT22;33323;52.124;6.018;2023-05-07T09:31:30;17.10;99.90
47600;DHT22;33323;52.124;6.018;2023-05-07T09:33:57;17.30;99.90
47600;DHT22;33323;52.124;6.018;2023-05-07T09:36:28;17.40;99.90
47600;DHT22;33323;52.124;6.018;2023-05-07T09:38:59;17.40;99.90
47600;DHT22;33323;52.124;6.018;2023-05-07T09:41:30;17.60;99.90
47600;DHT22;33323;52.124;6.018;2023-05-07T09:44:06;17.70;99.90
47600;DHT22;33323;52.124;6.018;2023-05-07T09:46:42;18.00;99.90
47600;DHT22;33323;52.124;6.018;2023-05-07T09:49:23;18.10;99.90
47600;DHT22;33323;52.124;6.018;2023-05-07T09:52:00;18.00;99.90
47600;DHT22;33323;52.124;6.018;2023-05-07T09:54:30;17.90;99.90
47600;DHT22;33323;52.124;6.018;2023-05-07T09:57:01;17.90;99.90
47600;DHT22;33323;52.124;6.018;2023-05-07T09:59:32;17.90;99.90
47600;DHT22;33323;52.124;6.018;2023-05-07T10:02:03;17.80;99.90
47600;DHT22;33323;52.124;6.018;2023-05-07T10:04:37;18.00;99.90
47600;DHT22;33323;52.124;6.018;2023-05-07T10:07:04;18.20;99.90
47600;DHT22;33323;52.124;6.018;2023-05-07T10:09:33;18.50;99.90
47600;DHT22;33323;52.124;6.018;2023-05-07T10:12:07;18.80;99.90
47600;DHT22;33323;52.124;6.018;2023-05-07T10:14:35;19.10;99.90
47600;DHT22;33323;52.124;6.018;2023-05-07T10:17:02;19.00;99.90
47600;DHT22;33323;52.124;6.018;2023-05-07T10:19:31;19.10;99.90
47600;DHT22;33323;52.124;6.018;2023-05-07T10:22:05;19.30;99.90
47600;DHT22;33323;52.124;6.018;2023-05-07T10:24:38;19.20;99.90
47600;DHT22;33323;52.124;6.018;2023-05-07T10:27:12;18.80;99.90
47600;DHT22;33323;52.124;6.018;2023-05-07T10:32:46;18.50;99.90
47600;DHT22;33323;52.124;6.018;2023-05-07T10:35:29;18.30;99.90
47600;DHT22;33323;52.124;6.018;2023-05-07T10:38:00;18.40;99.90
47600;DHT22;33323;52.124;6.018;2023-05-07T10:40:30;18.50;99.90
47600;DHT22;33323;52.124;6.018;2023-05-07T10:43:01;18.50;99.90
47600;DHT22;33323;52.124;6.018;2023-05-07T10:45:40;18.50;99.90
47600;DHT22;33323;52.124;6.018;2023-05-07T10:48:16;18.50;99.90
47600;DHT22;33323;52.124;6.018;2023-05-07T10:51:19;18.50;99.90
47600;DHT22;33323;52.124;6.018;2023-05-07T10:56:45;18.70;99.90
47600;DHT22;33323;52.124;6.018;2023-05-07T11:02:03;19.00;99.90
47600;DHT22;33323;52.124;6.018;2023-05-07T11:05:19;19.00;99.90
47600;DHT22;33323;52.124;6.018;2023-05-07T11:08:12;19.20;99.90
47600;DHT22;33323;52.124;6.018;2023-05-07T11:11:05;19.60;99.90
47600;DHT22;33323;52.124;6.018;2023-05-07T11:13:47;20.10;99.90
47600;DHT22;33323;52.124;6.018;2023-05-07T11:16:34;20.50;99.90
47600;DHT22;33323;52.124;6.018;2023-05-07T11:19:15;20.60;99.90
47600;DHT22;33323;52.124;6.018;2023-05-07T11:21:47;20.60;99.90
47600;DHT22;33323;52.124;6.018;2023-05-07T11:24:40;20.60;99.90
47600;DHT22;33323;52.124;6.018;2023-05-07T11:27:11;20.60;99.90
47600;DHT22;33323;52.124;6.018;2023-05-07T11:29:38;20.50;99.90
47600;DHT22;33323;52.124;6.018;2023-05-07T11:32:09;20.60;99.90
47600;DHT22;33323;52.124;6.018;2023-05-07T11:34:44;20.60;99.90
47600;DHT22;33323;52.124;6.018;2023-05-07T11:37:17;20.50;99.90
47600;DHT22;33323;52.124;6.018;2023-05-07T11:40:07;20.40;99.90
47600;DHT22;33323;52.124;6.018;2023-05-07T11:42:38;20.30;99.90
47600;DHT22;33323;52.124;6.018;2023-05-07T11:45:07;20.50;99.90
47600;DHT22;33323;52.124;6.018;2023-05-07T11:47:36;20.30;99.90
47600;DHT22;33323;52.124;6.018;2023-05-07T11:50:07;20.30;99.90
47600;DHT22;33323;52.124;6.018;2023-05-07T11:52:35;20.50;99.90
47600;DHT22;33323;52.124;6.018;2023-05-07T11:55:03;20.60;99.90
47600;DHT22;33323;52.124;6.018;2023-05-07T11:57:33;20.60;99.90
47600;DHT22;33323;52.124;6.018;2023-05-07T12:00:01;20.90;99.90
47600;DHT22;33323;52.124;6.018;2023-05-07T12:02:40;21.00;99.90
47600;DHT22;33323;52.124;6.018;2023-05-07T12:05:08;21.20;99.90
47600;DHT22;33323;52.124;6.018;2023-05-07T12:07:36;21.30;99.90
47600;DHT22;33323;52.124;6.018;2023-05-07T12:10:07;21.00;99.90
47600;DHT22;33323;52.124;6.018;2023-05-07T12:12:40;20.90;99.90
47600;DHT22;33323;52.124;6.018;2023-05-07T12:15:09;20.90;99.90
47600;DHT22;33323;52.124;6.018;2023-05-07T12:17:37;20.70;99.90
47600;DHT22;33323;52.124;6.018;2023-05-07T12:20:05;20.80;99.90
47600;DHT22;33323;52.124;6.018;2023-05-07T12:22:34;20.70;99.90
47600;DHT22;33323;52.124;6.018;2023-05-07T12:25:01;20.50;99.90
47600;DHT22;33323;52.124;6.018;2023-05-07T12:27:29;20.50;99.90
47600;DHT22;33323;52.124;6.018;2023-05-07T12:29:57;20.40;99.90
47600;DHT22;33323;52.124;6.018;2023-05-07T12:32:25;20.40;99.90
47600;DHT22;33323;52.124;6.018;2023-05-07T12:34:53;20.40;99.90
47600;DHT22;33323;52.124;6.018;2023-05-07T12:37:24;20.40;99.90
47600;DHT22;33323;52.124;6.018;2023-05-07T12:40:10;20.40;99.90
47600;DHT22;33323;52.124;6.018;2023-05-07T12:42:41;20.50;99.90
47600;DHT22;33323;52.124;6.018;2023-05-07T12:47:38;20.70;99.90
47600;DHT22;33323;52.124;6.018;2023-05-07T12:50:06;20.80;99.90
47600;DHT22;33323;52.124;6.018;2023-05-07T12:52:33;20.80;99.90
47600;DHT22;33323;52.124;6.018;2023-05-07T12:55:05;20.90;99.90
47600;DHT22;33323;52.124;6.018;2023-05-07T12:57:41;21.10;99.90
47600;DHT22;33323;52.124;6.018;2023-05-07T13:00:09;21.10;99.90
47600;DHT22;33323;52.124;6.018;2023-05-07T13:02:42;21.00;99.90
47600;DHT22;33323;52.124;6.018;2023-05-07T13:05:13;21.00;99.90
47600;DHT22;33323;52.124;6.018;2023-05-07T13:07:40;21.00;99.90
47600;DHT22;33323;52.124;6.018;2023-05-07T13:10:09;21.10;99.90
47600;DHT22;33323;52.124;6.018;2023-05-07T13:12:36;21.30;99.90
47600;DHT22;33323;52.124;6.018;2023-05-07T13:15:03;21.40;99.90
47600;DHT22;33323;52.124;6.018;2023-05-07T13:17:30;21.30;99.90
47600;DHT22;33323;52.124;6.018;2023-05-07T13:19:58;21.30;99.90
47600;DHT22;33323;52.124;6.018;2023-05-07T13:22:25;21.00;99.90
47600;DHT22;33323;52.124;6.018;2023-05-07T13:24:52;20.90;99.90
47600;DHT22;33323;52.124;6.018;2023-05-07T13:27:20;20.70;99.90
47600;DHT22;33323;52.124;6.018;2023-05-07T13:29:47;20.80;99.90
47600;DHT22;33323;52.124;6.018;2023-05-07T13:32:14;20.90;99.90
47600;DHT22;33323;52.124;6.018;2023-05-07T13:34:41;20.90;99.90
47600;DHT22;33323;52.124;6.018;2023-05-07T13:37:08;21.00;99.90
47600;DHT22;33323;52.124;6.018;2023-05-07T13:39:37;20.80;99.90
47600;DHT22;33323;52.124;6.018;2023-05-07T13:42:04;20.70;99.90
47600;DHT22;33323;52.124;6.018;2023-05-07T13:44:31;20.60;99.90
47600;DHT22;33323;52.124;6.018;2023-05-07T13:46:59;20.40;99.90
47600;DHT22;33323;52.124;6.018;2023-05-07T13:49:27;20.30;99.90
47600;DHT22;33323;52.124;6.018;2023-05-07T13:51:54;20.20;99.90
47600;DHT22;33323;52.124;6.018;2023-05-07T13:54:21;20.20;99.90
47600;DHT22;33323;52.124;6.018;2023-05-07T13:56:48;20.10;99.90
47600;DHT22;33323;52.124;6.018;2023-05-07T13:59:16;20.10;99.90
47600;DHT22;33323;52.124;6.018;2023-05-07T14:01:43;20.00;99.90
47600;DHT22;33323;52.124;6.018;2023-05-07T14:04:10;20.00;99.90
47600;DHT22;33323;52.124;6.018;2023-05-07T14:06:37;20.00;99.90
47600;DHT22;33323;52.124;6.018;2023-05-07T14:09:05;20.00;99.90
47600;DHT22;33323;52.124;6.018;2023-05-07T14:11:32;20.00;99.90
47600;DHT22;33323;52.124;6.018;2023-05-07T14:14:01;19.90;99.90
47600;DHT22;33323;52.124;6.018;2023-05-07T14:16:28;19.90;99.90
47600;DHT22;33323;52.124;6.018;2023-05-07T14:18:56;19.90;99.90
47600;DHT22;33323;52.124;6.018;2023-05-07T14:21:24;19.80;99.90
47600;DHT22;33323;52.124;6.018;2023-05-07T14:23:51;19.70;99.90
47600;DHT22;33323;52.124;6.018;2023-05-07T14:26:18;19.60;99.90
47600;DHT22;33323;52.124;6.018;2023-05-07T14:28:46;19.60;99.90
47600;DHT22;33323;52.124;6.018;2023-05-07T14:31:13;19.70;99.90
47600;DHT22;33323;52.124;6.018;2023-05-07T14:33:40;19.90;99.90
47600;DHT22;33323;52.124;6.018;2023-05-07T14:36:08;20.00;99.90
47600;DHT22;33323;52.124;6.018;2023-05-07T14:38:35;19.90;99.90
47600;DHT22;33323;52.124;6.018;2023-05-07T14:41:02;19.80;99.90
47600;DHT22;33323;52.124;6.018;2023-05-07T14:43:29;19.50;99.90
47600;DHT22;33323;52.124;6.018;2023-05-07T14:45:56;19.20;99.90
47600;DHT22;33323;52.124;6.018;2023-05-07T14:48:23;19.00;99.90
47600;DHT22;33323;52.124;6.018;2023-05-07T14:50:50;18.70;99.90
47600;DHT22;33323;52.124;6.018;2023-05-07T14:53:17;18.60;99.90
47600;DHT22;33323;52.124;6.018;2023-05-07T14:55:44;18.50;99.90
47600;DHT22;33323;52.124;6.018;2023-05-07T14:58:11;18.40;99.90
47600;DHT22;33323;52.124;6.018;2023-05-07T15:00:38;18.40;99.90
47600;DHT22;33323;52.124;6.018;2023-05-07T15:03:07;18.40;99.90
47600;DHT22;33323;52.124;6.018;2023-05-07T15:05:37;18.40;99.90
47600;DHT22;33323;52.124;6.018;2023-05-07T15:08:04;18.30;99.90
47600;DHT22;33323;52.124;6.018;2023-05-07T15:10:35;18.30;99.90
47600;DHT22;33323;52.124;6.018;2023-05-07T15:13:07;18.30;99.90
47600;DHT22;33323;52.124;6.018;2023-05-07T15:15:37;18.20;99.90
47600;DHT22;33323;52.124;6.018;2023-05-07T15:18:05;18.20;99.90
47600;DHT22;33323;52.124;6.018;2023-05-07T15:20:32;18.10;99.90
47600;DHT22;33323;52.124;6.018;2023-05-07T15:22:59;17.90;99.90
47600;DHT22;33323;52.124;6.018;2023-05-07T15:25:26;17.90;99.90
47600;DHT22;33323;52.124;6.018;2023-05-07T15:27:53;17.80;99.90
47600;DHT22;33323;52.124;6.018;2023-05-07T15:30:20;17.70;99.90
47600;DHT22;33323;52.124;6.018;2023-05-07T15:32:48;17.70;99.90
47600;DHT22;33323;52.124;6.018;2023-05-07T15:35:15;17.80;99.90
47600;DHT22;33323;52.124;6.018;2023-05-07T15:37:42;17.80;99.90
47600;DHT22;33323;52.124;6.018;2023-05-07T15:40:09;17.80;99.90
47600;DHT22;33323;52.124;6.018;2023-05-07T15:42:37;17.80;99.90
47600;DHT22;33323;52.124;6.018;2023-05-07T15:45:04;17.90;99.90
47600;DHT22;33323;52.124;6.018;2023-05-07T15:47:33;17.80;99.90
47600;DHT22;33323;52.124;6.018;2023-05-07T15:50:02;17.80;99.90
47600;DHT22;33323;52.124;6.018;2023-05-07T15:52:30;17.80;99.90
47600;DHT22;33323;52.124;6.018;2023-05-07T15:54:57;17.70;99.90
47600;DHT22;33323;52.124;6.018;2023-05-07T15:57:25;17.70;99.90